»·PEaware :: DAL724 KSLC-KDEN

DAL724 :: KSLC-KDEN

FLIGHT INFORMATION

Flight Status: Arrived
Operator:
Delta Air Lines
More flights by this operator :: More flights under this callsign
Pilot: Alfredo R. (12181)
Aircraft: BOEING 737-800
(B738)
More flights by this aircraft type
Origin: KSLC Salt Lake City Intl
United States
Destination: KDEN Denver Intl
United States
More flights between these airports :: More routes between these airports
Route: +RUGGD1 PERTY CHE KAILE2
File this flight plan on PilotEdge
Remarks:
Altitude:
(Current/Filed)
39,000ft
Speed:
(Current/Filed)
425kts
Departed: 23-Oct-18 07:08 PM
Arrived: 23-Oct-18 08:11 PM
Distance/Time
Traveled:
339nm/1:03
Distance/Time
To Go:
Arrived

Flight Plot

Page will automatically refresh every two minutes.

Flight plan parsing failed; only flown route is shown


Map Options




Map Legend


Flown Route
Filed Route
Departure Airport
Arrival Airport
Navaid (VOR, NDB)
Fix

Horizontal Profiles

Position Reports

Time Latitude Longitude Heading Altitude Ground
Speed
23-Oct-18 18:31 40.789252 -111.981164 195 4235ft 0kts
23-Oct-18 18:32 40.789252 -111.981164 195 4235ft 0kts
23-Oct-18 18:33 40.789252 -111.981164 195 4235ft 0kts
23-Oct-18 18:34 40.789252 -111.981164 195 4235ft 0kts
23-Oct-18 18:35 40.789252 -111.981164 195 4235ft 0kts
23-Oct-18 18:36 40.789252 -111.981164 195 4235ft 0kts
23-Oct-18 18:37 40.789252 -111.981164 195 4235ft 0kts
23-Oct-18 18:38 40.789252 -111.981164 195 4235ft 0kts
23-Oct-18 18:39 40.789252 -111.981164 195 4235ft 0kts
23-Oct-18 18:40 40.789252 -111.981164 195 4235ft 0kts
23-Oct-18 18:41 40.789253 -111.981164 195 4235ft 0kts
23-Oct-18 18:42 40.789253 -111.981164 195 4235ft 0kts
23-Oct-18 18:43 40.789253 -111.981164 195 4235ft 0kts
23-Oct-18 18:44 40.789253 -111.981164 195 4235ft 0kts
23-Oct-18 18:45 40.789253 -111.981164 195 4235ft 0kts
23-Oct-18 18:46 40.789253 -111.981164 195 4235ft 0kts
23-Oct-18 18:47 40.789337 -111.981124 205 4235ft 2kts
23-Oct-18 18:48 40.789789 -111.981009 157 4235ft 2kts
23-Oct-18 18:49 40.789955 -111.981438 78 4235ft 2kts
23-Oct-18 18:50 40.789939 -111.981487 86 4235ft 7kts
23-Oct-18 18:51 40.790013 -111.979976 85 4235ft 0kts
23-Oct-18 18:52 40.790013 -111.979975 85 4234ft 0kts
23-Oct-18 18:53 40.790013 -111.979975 85 4234ft 0kts
23-Oct-18 18:54 40.790013 -111.979975 85 4234ft 0kts
23-Oct-18 18:55 40.790015 -111.979939 84 4234ft 0kts
23-Oct-18 18:56 40.790156 -111.979205 77 4235ft 5kts
23-Oct-18 18:57 40.790628 -111.977209 12 4235ft 5kts
23-Oct-18 18:58 40.793675 -111.977515 355 4235ft 16kts
23-Oct-18 18:59 40.798301 -111.978044 353 4234ft 14kts
23-Oct-18 19:00 40.802382 -111.978450 5 4235ft 15kts
23-Oct-18 19:01 40.806455 -111.978571 354 4235ft 11kts
23-Oct-18 19:02 40.807144 -111.978463 34 4235ft 0kts
23-Oct-18 19:03 40.807153 -111.978455 34 4235ft 0kts
23-Oct-18 19:04 40.807392 -111.977550 116 4235ft 9kts
23-Oct-18 19:05 40.805916 -111.976777 175 4235ft 19kts
23-Oct-18 19:06 40.805167 -111.976683 174 4235ft 0kts
23-Oct-18 19:07 40.805167 -111.976683 174 4235ft 0kts
23-Oct-18 19:08 40.805167 -111.976683 174 4235ft 0kts
23-Oct-18 19:09 40.805167 -111.976683 174 4235ft 0kts
23-Oct-18 19:10 40.799166 -111.975940 173 4235ft 94kts
23-Oct-18 19:11 40.770112 -111.972207 171 4704ft 164kts
23-Oct-18 19:12 40.723097 -111.966201 175 5965ft 200kts
23-Oct-18 19:13 40.659818 -111.962808 191 7161ft 262kts
23-Oct-18 19:14 40.619363 -111.897301 85 9063ft 289kts
23-Oct-18 19:15 40.627186 -111.787679 83 10665ft 324kts
23-Oct-18 19:16 40.636022 -111.667806 84 12683ft 337kts
23-Oct-18 19:17 40.644991 -111.544127 84 14360ft 348kts
23-Oct-18 19:18 40.654176 -111.415493 84 15999ft 359kts
23-Oct-18 19:19 40.663406 -111.284247 85 17651ft 369kts
23-Oct-18 19:20 40.672793 -111.148654 85 19211ft 378kts
23-Oct-18 19:21 40.682283 -111.009024 85 20624ft 386kts
23-Oct-18 19:22 40.691749 -110.867061 85 22006ft 395kts
23-Oct-18 19:23 40.701236 -110.721906 86 23329ft 404kts
23-Oct-18 19:24 40.710758 -110.573415 86 24526ft 414kts
23-Oct-18 19:25 40.720307 -110.421192 86 25708ft 424kts
23-Oct-18 19:26 40.729931 -110.265159 87 26823ft 433kts
23-Oct-18 19:27 40.739628 -110.104586 89 27743ft 445kts
23-Oct-18 19:28 40.734313 -109.942329 104 28699ft 446kts
23-Oct-18 19:29 40.719153 -109.779069 101 29697ft 453kts
23-Oct-18 19:30 40.704360 -109.615072 101 30983ft 448kts
23-Oct-18 19:31 40.689904 -109.452567 101 32084ft 447kts
23-Oct-18 19:32 40.675787 -109.291064 101 33120ft 444kts
23-Oct-18 19:33 40.661899 -109.129855 101 34023ft 443kts
23-Oct-18 19:34 40.648347 -108.969843 101 34836ft 442kts
23-Oct-18 19:35 40.634994 -108.809603 101 35586ft 441kts
23-Oct-18 19:36 40.621855 -108.649576 101 36178ft 444kts
23-Oct-18 19:37 40.608891 -108.488612 101 36592ft 443kts
23-Oct-18 19:38 40.596299 -108.329617 101 36939ft 444kts
23-Oct-18 19:39 40.583815 -108.169211 101 37148ft 447kts
23-Oct-18 19:40 40.571446 -108.007558 100 37221ft 446kts
23-Oct-18 19:41 40.559402 -107.847192 100 37231ft 447kts
23-Oct-18 19:42 40.547517 -107.686456 99 37231ft 453kts
23-Oct-18 19:43 40.535484 -107.520411 99 37236ft 460kts
23-Oct-18 19:44 40.523650 -107.354512 99 37235ft 467kts
23-Oct-18 19:45 40.513820 -107.188179 98 35960ft 460kts
23-Oct-18 19:46 40.505261 -107.025833 98 34222ft 462kts
23-Oct-18 19:47 40.496183 -106.859841 98 32473ft 464kts
23-Oct-18 19:48 40.487119 -106.698957 99 30798ft 468kts
23-Oct-18 19:49 40.477465 -106.531995 98 29047ft 461kts
23-Oct-18 19:50 40.467730 -106.366718 98 27285ft 449kts
23-Oct-18 19:51 40.458330 -106.210392 99 25579ft 434kts
23-Oct-18 19:52 40.448787 -106.055704 98 24087ft 422kts
23-Oct-18 19:53 40.431793 -105.907517 106 22587ft 406kts
23-Oct-18 19:54 40.409858 -105.769022 105 21092ft 379kts
23-Oct-18 19:55 40.389342 -105.639940 104 19760ft 366kts
23-Oct-18 19:56 40.369434 -105.515244 104 18524ft 334kts
23-Oct-18 19:57 40.351270 -105.398339 102 17323ft 327kts
23-Oct-18 19:58 40.335602 -105.282987 102 16243ft 321kts
23-Oct-18 19:59 40.319965 -105.169191 102 15291ft 315kts
23-Oct-18 20:00 40.304542 -105.057846 102 14312ft 299kts
23-Oct-18 20:01 40.290453 -104.956731 102 13294ft 267kts
23-Oct-18 20:02 40.277425 -104.865363 102 12401ft 253kts
23-Oct-18 20:03 40.264543 -104.775792 102 11465ft 249kts
23-Oct-18 20:04 40.252716 -104.688063 94 10556ft 249kts
23-Oct-18 20:05 40.209844 -104.646258 195 9747ft 209kts
23-Oct-18 20:06 40.159537 -104.678746 203 8842ft 202kts
23-Oct-18 20:07 40.109265 -104.683971 180 8008ft 172kts
23-Oct-18 20:08 40.060978 -104.684792 181 7611ft 173kts
23-Oct-18 20:09 40.016080 -104.685367 181 7221ft 161kts
23-Oct-18 20:10 39.973718 -104.685873 181 6769ft 141kts
23-Oct-18 20:11 39.935066 -104.686340 180 6086ft 138kts
23-Oct-18 20:12 39.897417 -104.686731 180 5389ft 132kts
23-Oct-18 20:13 39.878035 -104.686593 165 5327ft 31kts
23-Oct-18 20:14 39.872192 -104.684922 181 5355ft 23kts
23-Oct-18 20:15 39.865162 -104.684987 180 5323ft 24kts
23-Oct-18 20:16 39.859829 -104.685053 180 5325ft 15kts
23-Oct-18 20:17 39.856961 -104.685071 179 5323ft 6kts
23-Oct-18 20:18 39.853513 -104.685111 165 5316ft 11kts
23-Oct-18 20:19 39.852838 -104.681263 102 5338ft 13kts
23-Oct-18 20:20 39.852777 -104.678207 90 5361ft 5kts
23-Oct-18 20:21 39.853119 -104.676584 4 5372ft 2kts

Navigation Log

Ident Type
Flight plan parsing failed, navigation log unavailable